Time;durP1;ratioP1;P1;durP2;ratioP2;P2;SDS_P1;SDS_P2;PMS_P1;PMS_P2;Temp;Humidity;BMP_temperature;BMP_pressure;BME280_temperature;BME280_humidity;BME280_pressure;Samples;Min_cycle;Max_cycle;Signal;HPM_P1;HPM_P2
2024/04/24 00:00:21;;;;;;;0.60;0.60;;;;;;;2.35;66.22;96397.56;29395;220;63009;-88
2024/04/24 00:00:53;;;;;;;0.60;0.60;;;;;;;2.36;65.69;96393.84;29395;298;63004;-90
2024/04/24 00:01:24;;;;;;;0.60;0.60;;;;;;;2.38;65.78;96401.63;29395;311;63009;-89
2024/04/24 00:01:56;;;;;;;0.60;0.60;;;;;;;2.39;65.25;96398.69;29394;279;64009;-91
2024/04/24 00:02:27;;;;;;;0.60;0.60;;;;;;;2.37;65.55;96390.09;29395;388;63008;-89
2024/04/24 00:03:02;;;;;;;0.60;0.60;;;;;;;2.43;64.81;96389.06;29395;236;63005;-90
2024/04/24 00:03:33;;;;;;;0.60;0.60;;;;;;;2.44;65.10;96401.41;29395;229;63025;-89
2024/04/24 00:04:05;;;;;;;0.60;0.60;;;;;;;2.44;64.83;96395.22;29395;240;63005;-90
2024/04/24 00:04:42;;;;;;;0.60;0.60;;;;;;;2.43;66.17;96394.41;29395;231;63009;-91
2024/04/24 00:05:14;;;;;;;0.60;0.60;;;;;;;2.38;65.51;96394.41;29394;233;64009;-89
2024/04/24 00:05:45;;;;;;;0.60;0.60;;;;;;;2.35;65.20;96393.03;29395;216;63009;-89
2024/04/24 00:06:16;;;;;;;0.60;0.60;;;;;;;2.37;66.34;96395.47;29395;198;63005;-88
2024/04/24 00:06:48;;;;;;;0.60;0.60;;;;;;;2.36;68.38;96401.88;29395;224;63009;-91
2024/04/24 00:07:19;;;;;;;0.60;0.60;;;;;;;2.34;66.16;96395.97;29395;202;63004;-89
2024/04/24 00:07:50;;;;;;;0.70;0.70;;;;;;;2.34;65.91;96393.28;29394;318;64013;-89
2024/04/24 00:08:21;;;;;;;0.60;0.60;;;;;;;2.34;66.74;96393.28;29395;224;63004;-91
2024/04/24 00:08:53;;;;;;;0.60;0.60;;;;;;;2.33;66.53;96395.16;29395;205;63009;-91
2024/04/24 00:09:24;;;;;;;0.60;0.60;;;;;;;2.32;66.56;96392.72;29395;211;63004;-89
2024/04/24 00:09:55;;;;;;;0.60;0.60;;;;;;;2.32;66.42;96387.38;29395;289;63008;-89
2024/04/24 00:10:27;;;;;;;0.60;0.60;;;;;;;2.32;67.42;96398.09;29394;214;64008;-89
2024/04/24 00:10:59;;;;;;;0.60;0.60;;;;;;;2.30;67.35;96400.19;29395;205;63009;-89
2024/04/24 00:11:30;;;;;;;0.60;0.60;;;;;;;2.30;66.88;96398.34;29395;204;63005;-90
2024/04/24 00:12:04;;;;;;;0.60;0.60;;;;;;;2.29;67.27;96390.56;29395;210;63009;-89
2024/04/24 00:12:35;;;;;;;0.60;0.60;;;;;;;2.29;66.92;96393.22;29395;216;63005;-89
2024/04/24 00:13:06;;;;;;;0.60;0.60;;;;;;;2.30;66.94;96395.66;29394;210;64013;-91
2024/04/24 00:13:37;;;;;;;0.60;0.60;;;;;;;2.30;66.93;96384.94;29395;283;63005;-89
2024/04/24 00:14:08;;;;;;;0.60;0.60;;;;;;;2.32;67.12;96392.72;29395;218;63014;-89
2024/04/24 00:14:40;;;;;;;0.60;0.60;;;;;;;2.32;66.56;96387.38;29395;204;63004;-89
2024/04/24 00:15:11;;;;;;;0.60;0.60;;;;;;;2.33;66.60;96389.00;29395;228;63009;-89
2024/04/24 00:15:42;;;;;;;0.60;0.60;;;;;;;2.34;66.31;96385.25;29395;218;63004;-89
2024/04/24 00:16:13;;;;;;;0.60;0.60;;;;;;;2.33;66.78;96386.31;29395;199;63009;-91
2024/04/24 00:16:45;;;;;;;0.60;0.60;;;;;;;2.31;66.48;96386.56;29394;238;64004;-90
2024/04/24 00:17:16;;;;;;;0.60;0.60;;;;;;;2.31;66.29;96386.56;29394;205;64013;-89
2024/04/24 00:17:47;;;;;;;0.60;0.60;;;;;;;2.32;66.18;96387.38;29394;215;64008;-90
2024/04/24 00:18:18;;;;;;;0.60;0.60;;;;;;;2.34;66.04;96379.91;29395;315;63009;-89
2024/04/24 00:18:50;;;;;;;0.60;0.60;;;;;;;2.35;66.07;96379.66;29395;199;63005;-90
2024/04/24 00:19:21;;;;;;;0.60;0.60;;;;;;;2.37;66.06;96384.75;29395;202;63009;-89
2024/04/24 00:19:55;;;;;;;0.60;0.60;;;;;;;2.38;64.56;96378.34;29395;202;63005;-90
2024/04/24 00:20:26;;;;;;;0.60;0.60;;;;;;;2.39;64.18;96366.56;29395;237;63009;-89
2024/04/24 00:20:57;;;;;;;0.60;0.60;;;;;;;2.42;64.32;96376.78;29395;202;63017;-90
2024/04/24 00:21:30;;;;;;;0.60;0.60;;;;;;;2.44;64.04;96371.13;29394;231;64007;-88
2024/04/24 00:22:01;;;;;;;0.60;0.60;;;;;;;2.45;63.59;96373.56;29395;203;63005;-90
2024/04/24 00:22:32;;;;;;;0.60;0.60;;;;;;;2.47;63.85;96374.13;29395;196;63009;-90
2024/04/24 00:23:03;;;;;;;0.60;0.60;;;;;;;2.47;64.15;96363.41;29395;266;63008;-91
2024/04/24 00:23:35;;;;;;;0.60;0.60;;;;;;;2.44;63.94;96361.22;29395;204;63009;-90
2024/04/24 00:24:06;;;;;;;0.62;0.62;;;;;;;2.43;64.38;96372.19;29395;220;63004;-89
2024/04/24 00:24:37;;;;;;;0.60;0.60;;;;;;;2.43;65.66;96375.69;29395;324;63009;-89
2024/04/24 00:25:10;;;;;;;0.60;0.60;;;;;;;2.41;65.56;96380.50;29395;217;63009;-91
2024/04/24 00:25:42;;;;;;;0.60;0.60;;;;;;;2.39;66.67;96381.81;29395;262;63009;-91
2024/04/24 00:26:13;;;;;;;0.60;0.60;;;;;;;2.35;65.13;96381.50;29395;322;63005;-91
2024/04/24 00:26:44;;;;;;;0.60;0.60;;;;;;;2.32;65.39;96382.81;29394;237;64014;-89
2024/04/24 00:27:15;;;;;;;0.60;0.60;;;;;;;2.32;66.34;96384.69;29395;224;63005;-89
2024/04/24 00:27:47;;;;;;;0.60;0.60;;;;;;;2.31;67.93;96391.09;29395;197;63009;-89
2024/04/24 00:28:18;;;;;;;0.60;0.60;;;;;;;2.29;68.26;96393.22;29395;204;63005;-90
2024/04/24 00:28:49;;;;;;;0.60;0.60;;;;;;;2.26;67.74;96391.06;29395;229;63014;-89
2024/04/24 00:29:23;;;;;;;0.60;0.60;;;;;;;2.23;68.43;96394.22;29395;256;63005;-89
2024/04/24 00:29:54;;;;;;;0.70;0.70;;;;;;;2.19;67.73;96393.13;29395;247;63009;-90
2024/04/24 00:30:25;;;;;;;0.60;0.60;;;;;;;2.16;67.93;96383.72;29395;212;63006;-88
2024/04/24 00:30:59;;;;;;;0.60;0.60;;;;;;;2.16;67.92;96396.28;29395;212;63009;-91
2024/04/24 00:31:31;;;;;;;0.60;0.60;;;;;;;2.16;67.41;96388.25;29395;215;63004;-88
2024/04/24 00:32:07;;;;;;;0.60;0.60;;;;;;;2.14;66.99;96385.03;29394;199;64013;-89
2024/04/24 00:32:39;;;;;;;0.60;0.60;;;;;;;2.15;67.18;96381.28;29395;222;63004;-90
2024/04/24 00:33:10;;;;;;;0.70;0.70;;;;;;;2.15;67.15;96383.97;29394;238;64014;-90
2024/04/24 00:33:41;;;;;;;0.60;0.60;;;;;;;2.14;67.66;96387.69;29395;215;63005;-90
2024/04/24 00:34:13;;;;;;;0.60;0.60;;;;;;;2.14;67.59;96387.69;29395;221;63009;-90
2024/04/24 00:34:44;;;;;;;0.60;0.60;;;;;;;2.09;68.34;96387.66;29395;260;63005;-89
2024/04/24 00:35:15;;;;;;;0.60;0.60;;;;;;;2.02;67.98;96387.87;29394;216;64009;-90
2024/04/24 00:35:46;;;;;;;0.60;0.60;;;;;;;1.98;67.67;96376.03;29395;227;63000;-89
2024/04/24 00:36:18;;;;;;;0.60;0.60;;;;;;;1.99;68.17;96383.81;29395;197;63009;-90
2024/04/24 00:36:49;;;;;;;0.60;0.60;;;;;;;2.00;68.99;96389.97;29395;324;63004;-90
2024/04/24 00:37:20;;;;;;;0.60;0.60;;;;;;;2.00;69.22;96390.78;29395;220;63009;-89
2024/04/24 00:37:54;;;;;;;0.60;0.60;;;;;;;2.01;68.65;96392.41;29394;251;64009;-90
2024/04/24 00:38:25;;;;;;;0.60;0.60;;;;;;;2.03;69.19;96394.03;29395;224;63009;-91
2024/04/24 00:38:57;;;;;;;0.60;0.60;;;;;;;2.01;69.76;96397.75;29395;237;63000;-89
2024/04/24 00:39:28;;;;;;;0.60;0.60;;;;;;;1.93;71.33;96384.81;29395;223;63008;-90
2024/04/24 00:39:59;;;;;;;0.60;0.60;;;;;;;1.95;70.96;96396.06;29395;223;63004;-91
2024/04/24 00:40:36;;;;;;;0.60;0.60;;;;;;;1.92;70.85;96398.44;29395;230;63008;-88
2024/04/24 00:41:08;;;;;;;0.60;0.60;;;;;;;1.89;70.22;96383.69;29395;215;63005;-88
2024/04/24 00:41:40;;;;;;;0.60;0.60;;;;;;;1.90;69.98;96389.84;29395;197;63009;-89
2024/04/24 00:42:19;;;;;;;0.60;0.60;;;;;;;1.92;69.64;96393.91;29395;212;63005;-90
2024/04/24 00:42:51;;;;;;;0.60;0.60;;;;;;;1.92;70.45;96388.53;29394;243;64013;-87
2024/04/24 00:43:22;;;;;;;0.60;0.60;;;;;;;1.87;70.10;96385.81;29395;203;63005;-89
2024/04/24 00:43:53;;;;;;;0.60;0.60;;;;;;;1.83;69.88;96395.37;29395;196;63009;-88
2024/04/24 00:44:24;;;;;;;0.60;0.60;;;;;;;1.80;68.29;96379.84;29395;294;63010;-89
2024/04/24 00:44:55;;;;;;;0.60;0.60;;;;;;;1.78;68.56;96376.59;29395;197;63009;-89
2024/04/24 00:45:26;;;;;;;0.60;0.60;;;;;;;1.77;68.32;96379.53;29395;252;63004;-89
2024/04/24 00:45:59;;;;;;;0.60;0.60;;;;;;;1.75;68.60;96379.78;29394;326;64009;-88
2024/04/24 00:46:45;;;;;;;0.60;0.60;;;;;;;1.76;69.56;96388.59;29395;198;63004;-88
2024/04/24 00:47:19;;;;;;;0.60;0.60;;;;;;;1.74;69.60;96374.66;29395;204;63008;-90
2024/04/24 00:47:52;;;;;;;0.60;0.60;;;;;;;1.75;69.58;96379.78;29394;256;64005;-88
2024/04/24 00:48:25;;;;;;;0.60;0.60;;;;;;;1.76;70.52;96378.72;29395;225;63009;-89
2024/04/24 00:48:57;;;;;;;0.60;0.60;;;;;;;1.78;70.15;96381.13;29395;290;63007;-90
2024/04/24 00:49:29;;;;;;;0.60;0.60;;;;;;;1.78;70.65;96389.16;29395;197;63009;-89
2024/04/24 00:50:02;;;;;;;0.60;0.60;;;;;;;1.79;70.25;96383.56;29395;197;63005;-88
2024/04/24 00:50:34;;;;;;;0.60;0.60;;;;;;;1.79;69.94;96378.22;29395;289;63009;-89
2024/04/24 00:51:05;;;;;;;1.20;1.20;;;;;;;1.85;70.13;96385.25;29395;242;63005;-90
2024/04/24 00:51:40;;;;;;;0.60;0.60;;;;;;;1.87;70.16;96377.78;29395;233;63009;-90
2024/04/24 00:52:13;;;;;;;0.60;0.60;;;;;;;1.87;69.88;96380.47;29395;228;63004;-89
2024/04/24 00:52:44;;;;;;;0.60;0.60;;;;;;;1.88;70.01;96382.06;29395;244;63013;-89
2024/04/24 00:53:17;;;;;;;0.60;0.60;;;;;;;1.88;70.12;96375.91;29394;209;64009;-89
2024/04/24 00:53:49;;;;;;;0.60;0.60;;;;;;;1.88;69.75;96376.72;29395;225;63013;-90
2024/04/24 00:54:24;;;;;;;0.60;0.60;;;;;;;1.86;70.49;96378.03;29395;232;63004;-91
2024/04/24 00:54:56;;;;;;;0.70;0.70;;;;;;;1.83;71.44;96382.00;29395;239;63020;-90
2024/04/24 00:55:31;;;;;;;0.60;0.60;;;;;;;1.80;70.80;96374.47;29395;197;63005;-90
2024/04/24 00:56:08;;;;;;;0.70;0.70;;;;;;;1.84;70.33;96372.94;29373;224;63009;-89
2024/04/24 00:56:41;;;;;;;0.60;0.60;;;;;;;1.87;70.24;96375.09;29395;241;63005;-90
2024/04/24 00:57:16;;;;;;;0.60;0.60;;;;;;;1.88;72.22;96386.63;29395;199;63009;-89
2024/04/24 00:57:54;;;;;;;0.62;0.62;;;;;;;1.84;73.05;96386.31;29395;253;63005;-90
2024/04/24 00:58:27;;;;;;;0.60;0.60;;;;;;;1.83;72.77;96379.34;29371;218;64013;-89
2024/04/24 00:58:59;;;;;;;0.60;0.60;;;;;;;1.80;71.47;96379.03;29394;245;64009;-90
2024/04/24 00:59:43;;;;;;;0.62;0.62;;;;;;;1.76;72.47;96380.59;29395;208;63009;-91
2024/04/24 01:00:20;;;;;;;0.62;0.62;;;;;;;1.68;72.24;96376.50;29395;221;63004;-92
2024/04/24 01:00:55;;;;;;;0.60;0.60;;;;;;;1.65;72.58;96383.16;29395;286;63009;-91
2024/04/24 01:01:33;;;;;;;;;;;;;;;1.67;72.80;96380.22;29974;983;28000;-90
2024/04/24 01:02:04;;;;;;;0.70;0.70;;;;;;;1.65;73.53;96383.16;29422;219;63004;-91
2024/04/24 01:02:35;;;;;;;0.60;0.60;;;;;;;1.65;73.50;96382.34;29395;239;63009;-90
2024/04/24 01:03:07;;;;;;;0.60;0.60;;;;;;;1.64;72.80;96381.53;29395;297;63014;-89
2024/04/24 01:03:48;;;;;;;0.68;0.68;;;;;;;1.61;72.04;96373.19;29394;205;64014;-88
2024/04/24 01:04:19;;;;;;;0.70;0.70;;;;;;;1.57;71.94;96382.78;29416;219;64009;-88
2024/04/24 01:04:51;;;;;;;0.60;0.60;;;;;;;1.57;72.70;96385.44;29395;204;63009;-90
2024/04/24 01:05:25;;;;;;;0.60;0.60;;;;;;;1.58;72.50;96379.03;29395;216;63015;-90
2024/04/24 01:05:56;;;;;;;0.70;0.70;;;;;;;1.61;72.71;96381.22;29395;212;63009;-88
2024/04/24 01:06:28;;;;;;;0.60;0.60;;;;;;;1.64;72.22;96375.38;29395;291;63005;-88
2024/04/24 01:06:59;;;;;;;0.70;0.70;;;;;;;1.64;70.48;96373.50;29395;285;63009;-89
2024/04/24 01:07:30;;;;;;;0.60;0.60;;;;;;;1.61;70.91;96367.84;29373;248;63004;-89
2024/04/24 01:08:02;;;;;;;0.60;0.60;;;;;;;1.60;70.79;96371.56;29395;272;63009;-87
2024/04/24 01:08:33;;;;;;;0.60;0.60;;;;;;;1.62;71.29;96372.13;29395;212;63004;-88
2024/04/24 01:09:04;;;;;;;0.70;0.70;;;;;;;1.61;71.02;96368.66;29395;276;63009;-89
2024/04/24 01:09:35;;;;;;;0.60;0.60;;;;;;;1.61;71.20;96370.53;29371;243;64008;-89
2024/04/24 01:10:17;;;;;;;0.60;0.60;;;;;;;1.60;71.01;96374.25;29395;225;63009;-88
2024/04/24 01:10:59;;;;;;;0.70;0.70;;;;;;;1.61;72.10;96370.53;29395;223;63016;-88
2024/04/24 01:11:33;;;;;;;1.70;1.60;;;;;;;1.59;71.18;96367.28;29395;218;63009;-89
2024/04/24 01:12:06;;;;;;;0.60;0.60;;;;;;;1.57;71.69;96364.84;29395;280;63005;-88
2024/04/24 01:12:37;;;;;;;0.60;0.60;;;;;;;1.58;71.91;96365.66;29395;229;63009;-88
2024/04/24 01:13:08;;;;;;;0.60;0.60;;;;;;;1.62;71.73;96372.13;29373;202;63005;-89
2024/04/24 01:13:39;;;;;;;0.65;0.65;;;;;;;1.63;70.98;96358.53;29395;235;63009;-88
2024/04/24 01:14:11;;;;;;;0.70;0.70;;;;;;;1.65;70.63;96367.09;29395;204;63005;-88
2024/04/24 01:14:44;;;;;;;0.70;0.70;;;;;;;1.65;70.83;96358.28;29371;265;64013;-88
2024/04/24 01:15:16;;;;;;;0.65;0.65;;;;;;;1.64;71.45;96360.13;29395;197;63014;-88
2024/04/24 01:15:55;;;;;;;0.60;0.60;;;;;;;1.60;70.12;96355.53;29373;242;63018;-89
2024/04/24 01:16:36;;;;;;;0.70;0.70;;;;;;;1.62;70.29;96361.44;29373;241;63004;-89
2024/04/24 01:17:11;;;;;;;0.65;0.65;;;;;;;1.60;70.71;96361.69;29395;244;63008;-89
2024/04/24 01:17:46;;;;;;;0.60;0.60;;;;;;;1.59;70.97;96360.06;29395;313;63005;-89
2024/04/24 01:18:18;;;;;;;0.60;0.60;;;;;;;1.59;70.70;96357.41;29373;212;63009;-89
2024/04/24 01:18:54;;;;;;;0.70;0.70;;;;;;;1.61;70.55;96359.81;29395;270;63005;-89
2024/04/24 01:19:46;;;;;;;0.60;0.60;;;;;;;1.65;70.27;96355.59;29394;290;64013;-89
2024/04/24 01:20:25;;;;;;;0.70;0.70;;;;;;;1.67;69.75;96354.28;29416;349;64009;-89
2024/04/24 01:20:59;;;;;;;0.60;0.60;;;;;;;1.67;69.41;96353.50;29395;212;63009;-88
2024/04/24 01:22:04;;;;;;;0.60;0.60;;;;;;;1.68;69.60;96349.75;29395;204;63005;-88
2024/04/24 01:23:15;;;;;;;0.70;0.70;;;;;;;1.74;68.74;96340.72;29395;199;63009;-89
2024/04/24 01:23:58;;;;;;;0.70;0.70;;;;;;;1.78;68.39;96341.81;29395;205;63004;-88
2024/04/24 01:24:35;;;;;;;0.60;0.60;;;;;;;1.79;67.87;96346.12;29373;222;63008;-89
2024/04/24 01:25:19;;;;;;;0.60;0.60;;;;;;;1.80;68.14;96346.94;29371;202;64009;-88
2024/04/24 01:26:02;;;;;;;0.60;0.60;;;;;;;1.84;68.31;96348.03;29395;218;63009;-87
2024/04/24 01:26:47;;;;;;;0.70;0.70;;;;;;;1.88;69.98;96349.16;29395;253;63005;-88
2024/04/24 01:27:19;;;;;;;0.60;0.60;;;;;;;1.88;69.68;96344.63;29373;234;63009;-89
2024/04/24 01:27:51;;;;;;;0.70;0.70;;;;;;;1.89;70.11;96351.59;29395;218;63005;-91
2024/04/24 01:28:23;;;;;;;0.60;0.60;;;;;;;1.92;70.26;96351.09;29395;221;63009;-90
2024/04/24 01:28:54;;;;;;;0.60;0.60;;;;;;;1.94;70.30;96348.97;29395;227;63005;-89
2024/04/24 01:29:25;;;;;;;0.60;0.60;;;;;;;1.94;69.91;96353.53;29373;252;63009;-88
2024/04/24 01:29:57;;;;;;;0.60;0.60;;;;;;;1.95;69.44;96349.78;29395;202;63004;-90
2024/04/24 01:30:29;;;;;;;0.60;0.60;;;;;;;1.96;69.05;96341.50;29394;220;64013;-89
2024/04/24 01:31:01;;;;;;;0.60;0.60;;;;;;;1.98;69.09;96342.06;29395;212;63004;-88
2024/04/24 01:31:32;;;;;;;0.60;0.60;;;;;;;2.03;69.04;96340.50;29395;244;63009;-87
2024/04/24 01:32:04;;;;;;;0.70;0.70;;;;;;;2.07;68.68;96338.94;29395;218;63004;-89
2024/04/24 01:32:35;;;;;;;0.70;0.70;;;;;;;2.08;68.47;96336.00;29395;219;63008;-89
2024/04/24 01:33:06;;;;;;;0.60;0.60;;;;;;;2.09;68.58;96329.56;29395;231;63012;-88
2024/04/24 01:33:38;;;;;;;0.60;0.60;;;;;;;2.08;69.01;96341.34;29395;214;63009;-89
2024/04/24 01:34:09;;;;;;;0.60;0.60;;;;;;;2.07;68.68;96336.28;29395;219;63005;-89
2024/04/24 01:34:40;;;;;;;0.60;0.60;;;;;;;2.09;68.98;96340.28;29395;230;63009;-90
2024/04/24 01:35:11;;;;;;;0.60;0.60;;;;;;;2.13;69.49;96338.72;29395;275;63005;-90
2024/04/24 01:35:43;;;;;;;0.70;0.70;;;;;;;2.15;69.27;96335.78;29394;198;64013;-89
2024/04/24 01:36:14;;;;;;;0.60;0.60;;;;;;;2.16;69.18;96337.41;29395;203;63005;-89
2024/04/24 01:36:45;;;;;;;0.60;0.60;;;;;;;2.17;68.82;96326.44;29395;210;63009;-89
2024/04/24 01:37:17;;;;;;;0.60;0.60;;;;;;;2.19;68.83;96334.22;29395;307;63004;-89
2024/04/24 01:37:48;;;;;;;0.62;0.62;;;;;;;2.18;68.76;96328.06;29395;248;63009;-90
2024/04/24 01:38:19;;;;;;;0.70;0.70;;;;;;;2.19;69.11;96328.88;29395;210;63004;-89
2024/04/24 01:38:51;;;;;;;0.60;0.60;;;;;;;2.18;68.85;96329.94;29395;218;63009;-90
2024/04/24 01:39:22;;;;;;;0.60;0.60;;;;;;;2.20;70.53;96341.19;29395;205;63004;-88
2024/04/24 01:39:53;;;;;;;0.60;0.60;;;;;;;2.19;71.48;96339.59;29395;218;63008;-88
2024/04/24 01:40:24;;;;;;;0.60;0.60;;;;;;;2.16;71.10;96340.91;29395;199;63005;-88
2024/04/24 01:40:56;;;;;;;0.60;0.60;;;;;;;2.14;71.15;96344.88;29394;223;64014;-90
2024/04/24 01:41:27;;;;;;;0.68;0.68;;;;;;;2.15;71.81;96349.19;29395;199;63005;-90
2024/04/24 01:42:01;;;;;;;0.60;0.60;;;;;;;2.15;71.61;96338.47;29394;210;64013;-89
2024/04/24 01:42:32;;;;;;;0.70;0.70;;;;;;;2.18;71.06;96338.78;29395;214;63012;-89
2024/04/24 01:43:03;;;;;;;0.70;0.70;;;;;;;2.23;70.11;96338.03;29395;222;63009;-89
2024/04/24 01:43:36;;;;;;;0.60;0.60;;;;;;;2.27;69.33;96331.09;29395;233;63004;-90
2024/04/24 01:44:08;;;;;;;0.60;0.60;;;;;;;2.26;68.75;96329.47;29395;227;63009;-89
2024/04/24 01:44:40;;;;;;;0.70;0.70;;;;;;;2.25;68.92;96327.87;29395;240;63004;-91
2024/04/24 01:45:13;;;;;;;0.60;0.60;;;;;;;2.25;69.15;96330.53;29395;202;63009;-89
2024/04/24 01:45:46;;;;;;;0.70;0.70;;;;;;;2.25;69.71;96331.34;29395;218;63004;-88
2024/04/24 01:46:17;;;;;;;0.70;0.70;;;;;;;2.28;70.10;96332.72;29395;304;63008;-90
2024/04/24 01:46:48;;;;;;;0.70;0.70;;;;;;;2.30;70.17;96333.28;29395;199;63004;-88
2024/04/24 01:47:20;;;;;;;0.70;0.70;;;;;;;2.30;69.57;96331.41;29394;283;64013;-90
2024/04/24 01:47:51;;;;;;;0.60;0.60;;;;;;;2.31;73.13;96353.62;29395;225;63005;-90
2024/04/24 01:48:22;;;;;;;0.60;0.60;;;;;;;2.30;71.91;96343.97;29395;237;63009;-89
2024/04/24 01:48:54;;;;;;;0.60;0.60;;;;;;;2.30;72.03;96346.66;29394;211;64009;-91
2024/04/24 01:49:25;;;;;;;0.60;0.60;;;;;;;2.30;71.92;96346.66;29395;203;63009;-90
2024/04/24 01:49:56;;;;;;;0.60;0.60;;;;;;;2.30;72.07;96343.97;29395;242;63005;-91
2024/04/24 01:50:28;;;;;;;0.60;0.60;;;;;;;2.31;71.95;96348.28;29395;228;63009;-88
2024/04/24 01:51:01;;;;;;;0.60;0.60;;;;;;;2.32;72.09;96333.81;29395;211;63007;-89
2024/04/24 01:51:32;;;;;;;0.60;0.60;;;;;;;2.34;71.87;96337.88;29395;248;63009;-89
2024/04/24 01:52:03;;;;;;;0.60;0.60;;;;;;;2.35;71.21;96339.47;29394;228;64009;-88
2024/04/24 01:52:34;;;;;;;0.60;0.60;;;;;;;2.37;70.90;96336.56;29395;219;63009;-88
2024/04/24 01:53:06;;;;;;;0.60;0.60;;;;;;;2.32;70.89;96340.00;29395;224;63004;-91
2024/04/24 01:53:37;;;;;;;0.60;0.60;;;;;;;2.31;70.98;96332.22;29395;210;63009;-90
2024/04/24 01:54:08;;;;;;;0.60;0.60;;;;;;;2.31;71.81;96345.59;29395;263;63004;-89
2024/04/24 01:54:39;;;;;;;0.60;0.60;;;;;;;2.31;71.41;96337.56;29395;225;63009;-89
2024/04/24 01:55:10;;;;;;;0.60;0.60;;;;;;;2.32;71.71;96333.81;29395;199;63005;-90
2024/04/24 01:55:41;;;;;;;0.60;0.60;;;;;;;2.33;71.87;96340.81;29395;235;63009;-89
2024/04/24 01:56:13;;;;;;;0.60;0.60;;;;;;;2.32;71.47;96339.19;29394;232;64009;-90
2024/04/24 01:56:44;;;;;;;0.60;0.60;;;;;;;2.32;71.34;96329.28;29395;226;63009;-89
2024/04/24 01:57:15;;;;;;;0.60;0.60;;;;;;;2.33;71.05;96330.91;29394;222;64009;-91
2024/04/24 01:57:47;;;;;;;0.52;0.52;;;;;;;2.36;71.09;96334.94;29395;196;63009;-90
2024/04/24 01:58:18;;;;;;;0.60;0.60;;;;;;;2.38;70.84;96324.78;29395;220;63005;-90
2024/04/24 01:58:50;;;;;;;0.60;0.60;;;;;;;2.41;71.10;96331.50;29395;199;63009;-90
2024/04/24 01:59:21;;;;;;;0.60;0.60;;;;;;;2.41;70.78;96326.97;29395;223;63004;-90
2024/04/24 01:59:53;;;;;;;0.60;0.60;;;;;;;2.42;69.90;96322.41;29395;200;63009;-90
2024/04/24 02:00:24;;;;;;;0.60;0.60;;;;;;;2.41;69.37;96318.94;29395;230;63004;-88
2024/04/24 02:00:56;;;;;;;0.60;0.60;;;;;;;2.41;68.41;96310.88;29394;227;64013;-88
2024/04/24 02:01:28;;;;;;;0.60;0.60;;;;;;;2.42;68.91;96311.69;29395;211;63004;-90
2024/04/24 02:02:02;;;;;;;0.60;0.60;;;;;;;2.43;68.83;96308.72;29395;257;63008;-89
2024/04/24 02:02:33;;;;;;;0.60;0.60;;;;;;;2.45;68.83;96301.25;29394;198;64009;-88
2024/04/24 02:03:04;;;;;;;0.50;0.50;;;;;;;2.49;68.78;96307.72;29395;240;63009;-88
2024/04/24 02:03:36;;;;;;;0.60;0.60;;;;;;;2.49;68.74;96313.06;29395;264;63010;-90
2024/04/24 02:04:07;;;;;;;0.60;0.60;;;;;;;2.51;68.25;96305.59;29395;238;63009;-88
2024/04/24 02:04:38;;;;;;;0.60;0.60;;;;;;;2.53;68.59;96308.81;29395;206;63005;-88
2024/04/24 02:05:09;;;;;;;0.60;0.60;;;;;;;2.55;68.36;96301.34;29395;219;63009;-89
2024/04/24 02:05:41;;;;;;;0.60;0.60;;;;;;;2.57;68.25;96307.25;29395;220;63005;-89
2024/04/24 02:06:12;;;;;;;0.60;0.60;;;;;;;2.57;67.97;96299.22;29394;235;64013;-88
2024/04/24 02:06:43;;;;;;;0.52;0.52;;;;;;;2.60;68.17;96298.72;29395;323;63004;-88
2024/04/24 02:07:14;;;;;;;0.60;0.60;;;;;;;2.61;67.56;96296.84;29395;218;63014;-89
2024/04/24 02:07:45;;;;;;;0.60;0.60;;;;;;;2.62;67.49;96301.94;29394;226;64009;-88
2024/04/24 02:08:17;;;;;;;0.60;0.60;;;;;;;2.63;68.04;96298.19;29395;215;63009;-90
2024/04/24 02:08:48;;;;;;;0.60;0.60;;;;;;;2.63;68.49;96300.88;29395;231;63007;-88
2024/04/24 02:09:19;;;;;;;0.60;0.60;;;;;;;2.64;67.92;96299.00;29395;258;63008;-90
2024/04/24 02:09:50;;;;;;;0.60;0.60;;;;;;;2.65;68.14;96297.94;29395;257;63005;-87
2024/04/24 02:10:22;;;;;;;0.60;0.60;;;;;;;2.66;68.11;96307.59;29395;271;63009;-89
2024/04/24 02:10:53;;;;;;;0.60;0.60;;;;;;;2.66;67.75;96303.03;29395;221;63005;-89
2024/04/24 02:11:24;;;;;;;0.60;0.60;;;;;;;2.66;67.80;96297.69;29394;257;64013;-89
2024/04/24 02:11:55;;;;;;;0.60;0.60;;;;;;;2.66;68.85;96303.03;29395;218;63005;-89
2024/04/24 02:12:27;;;;;;;0.60;0.60;;;;;;;2.64;70.30;96315.88;29395;296;63009;-90
2024/04/24 02:12:58;;;;;;;0.60;0.60;;;;;;;2.62;70.18;96312.66;29395;255;63005;-88
2024/04/24 02:13:29;;;;;;;0.60;0.60;;;;;;;2.61;69.63;96310.22;29395;361;63009;-87
2024/04/24 02:14:01;;;;;;;0.60;0.60;;;;;;;2.61;71.07;96316.41;29395;213;63004;-88
2024/04/24 02:14:32;;;;;;;0.60;0.60;;;;;;;2.57;70.92;96315.28;29395;210;63009;-89
2024/04/24 02:15:04;;;;;;;0.60;0.60;;;;;;;2.56;71.38;96327.06;29395;210;63004;-87
2024/04/24 02:15:36;;;;;;;0.60;0.60;;;;;;;2.54;71.26;96320.34;29395;248;63009;-88
2024/04/24 02:16:07;;;;;;;0.60;0.60;;;;;;;2.50;71.04;96314.69;29395;197;63004;-88
2024/04/24 02:16:38;;;;;;;0.80;0.80;;;;;;;2.48;70.90;96316.81;29394;208;64013;-90
2024/04/24 02:17:10;;;;;;;0.60;0.60;;;;;;;2.46;70.93;96316.25;29394;214;64009;-89
2024/04/24 02:17:41;;;;;;;0.60;0.60;;;;;;;2.46;71.42;96318.94;29395;213;63009;-88
2024/04/24 02:18:12;;;;;;;0.60;0.60;;;;;;;2.44;71.48;96315.72;29394;277;64009;-88
2024/04/24 02:18:43;;;;;;;0.60;0.60;;;;;;;2.45;71.58;96319.19;29395;215;63009;-87
2024/04/24 02:19:15;;;;;;;0.60;0.60;;;;;;;2.47;71.33;96315.19;29395;286;63005;-88
2024/04/24 02:19:46;;;;;;;0.70;0.70;;;;;;;2.49;71.43;96317.63;29395;219;63009;-89
2024/04/24 02:20:17;;;;;;;0.60;0.60;;;;;;;2.50;71.39;96316.56;29395;318;63012;-87
2024/04/24 02:20:48;;;;;;;0.60;0.60;;;;;;;2.52;71.29;96319.78;29395;363;63009;-88
2024/04/24 02:21:19;;;;;;;0.60;0.60;;;;;;;2.53;71.53;96313.38;29395;205;63004;-87
2024/04/24 02:21:50;;;;;;;0.60;0.60;;;;;;;2.52;72.42;96315.25;29394;227;64005;-90
2024/04/24 02:22:22;;;;;;;0.60;0.60;;;;;;;2.53;72.78;96318.72;29395;222;63004;-87
2024/04/24 02:22:53;;;;;;;0.60;0.60;;;;;;;2.51;72.50;96316.31;29395;196;63009;-88
2024/04/24 02:23:31;;;;;;;0.60;0.60;;;;;;;2.49;73.35;96318.44;29395;223;63009;-88
2024/04/24 02:24:05;;;;;;;0.60;0.60;;;;;;;2.46;72.49;96315.44;29394;202;64013;-88
2024/04/24 02:25:36;;;;;;;0.60;0.60;;;;;;;2.44;72.49;96318.38;29395;221;63009;-88
2024/04/24 02:26:10;;;;;;;;;;;;;;;2.42;72.44;96312.50;29996;982;6000;-89
2024/04/24 02:26:41;;;;;;;0.60;0.60;;;;;;;2.45;72.11;96316.50;29400;239;63005;-87
2024/04/24 02:27:12;;;;;;;0.60;0.60;;;;;;;2.46;72.13;96318.13;29395;301;63009;-87
2024/04/24 02:27:43;;;;;;;0.60;0.60;;;;;;;2.45;71.92;96317.31;29395;222;63005;-89
2024/04/24 02:28:15;;;;;;;0.60;0.60;;;;;;;2.49;71.47;96313.06;29394;214;64013;-89
2024/04/24 02:28:46;;;;;;;0.60;0.60;;;;;;;2.50;71.29;96314.69;29395;210;63005;-88
2024/04/24 02:29:17;;;;;;;0.60;0.60;;;;;;;2.50;71.78;96312.00;29395;203;63009;-88
2024/04/24 02:29:49;;;;;;;0.60;0.60;;;;;;;2.51;72.89;96318.97;29395;212;63004;-88
2024/04/24 02:30:20;;;;;;;0.60;0.60;;;;;;;2.51;72.37;96313.63;29395;219;63009;-88
2024/04/24 02:30:51;;;;;;;0.60;0.60;;;;;;;2.53;72.02;96314.19;29395;206;63004;-88
2024/04/24 02:31:22;;;;;;;0.60;0.60;;;;;;;2.54;71.79;96305.09;29395;226;63009;-89
2024/04/24 02:31:53;;;;;;;0.60;0.60;;;;;;;2.56;72.07;96313.69;29395;221;63004;-90
2024/04/24 02:32:24;;;;;;;0.60;0.60;;;;;;;2.55;72.99;96312.06;29395;215;63009;-89
2024/04/24 02:32:56;;;;;;;0.60;0.60;;;;;;;2.55;74.06;96321.97;29395;214;63005;-88
2024/04/24 02:33:27;;;;;;;0.60;0.60;;;;;;;2.53;74.39;96324.09;29394;202;64014;-88
2024/04/24 02:33:59;;;;;;;0.60;0.60;;;;;;;2.51;73.63;96310.16;29394;280;64009;-88
2024/04/24 02:34:30;;;;;;;0.60;0.60;;;;;;;2.50;74.02;96317.38;29395;202;63009;-89
2024/04/24 02:35:01;;;;;;;0.60;0.60;;;;;;;2.47;74.62;96317.88;29395;214;63005;-87
2024/04/24 02:35:35;;;;;;;0.60;0.60;;;;;;;2.46;74.70;96320.81;29395;221;63005;-87
2024/04/24 02:36:09;;;;;;;3.60;3.50;;;;;;;2.46;73.94;96312.78;29395;264;63007;-88
2024/04/24 02:36:40;;;;;;;0.60;0.60;;;;;;;2.47;73.30;96309.84;29395;202;63009;-89
2024/04/24 02:37:12;;;;;;;0.60;0.60;;;;;;;2.46;74.04;96310.91;29395;220;63004;-89
2024/04/24 02:37:43;;;;;;;0.60;0.60;;;;;;;2.46;73.67;96312.78;29395;237;63009;-89
2024/04/24 02:38:15;;;;;;;0.60;0.60;;;;;;;2.46;73.70;96318.94;29395;211;63004;-88
2024/04/24 02:38:47;;;;;;;0.60;0.60;;;;;;;2.45;73.13;96309.28;29394;231;64013;-88